Terminal Aerodrome Forecast
Issued by NWS Mt. Holly, NJ

Home | Current Version | Previous Version | Text Only | Print | Product List | Glossary On
Versions: 1 2 3 4 5 6 7 8 9 10 11 12 13
342
FTUS41 KPHI 042320
TAFRDG
TAF
KRDG 042320Z 0500/0524 VRB02KT P6SM SCT040 OVC120
     FM050600 15004KT 3SM -SN BKN015 OVC025
      TEMPO 0508/0510 3SM -RASN
     FM051000 VRB03KT 5SM -RA BKN008 OVC015
     FM051600 28008KT P6SM SCT030 OVC050=

USA.gov is the U.S. government's official web portal to all federal, state and local government web resources and services.